createdAt,value
2017-08-15T00:02:10.887Z,83.00
2017-08-15T00:04:44.636Z,82.40
2017-08-15T00:07:18.958Z,82.50
2017-08-15T00:09:53.477Z,81.70
2017-08-15T00:12:28.795Z,82.30
2017-08-15T00:15:02.721Z,82.50
2017-08-15T00:17:37.367Z,82.30
2017-08-15T00:20:11.391Z,82.40
2017-08-15T00:22:45.304Z,82.30
2017-08-15T00:25:20.267Z,82.10
2017-08-15T00:27:55.236Z,82.50
2017-08-15T00:30:29.435Z,82.60
2017-08-15T00:33:05.077Z,82.20
2017-08-15T00:35:39.048Z,82.20
2017-08-15T00:38:12.860Z,81.90
2017-08-15T00:40:47.459Z,81.90
2017-08-15T00:43:22.025Z,81.50
2017-08-15T00:45:57.065Z,82.10
2017-08-15T00:48:31.112Z,82.10
2017-08-15T00:51:05.004Z,82.30
2017-08-15T00:53:39.660Z,82.20
2017-08-15T00:56:15.483Z,82.20
2017-08-15T00:58:50.559Z,81.70
2017-08-15T01:01:24.907Z,81.50
2017-08-15T01:03:59.913Z,81.30
2017-08-15T01:06:34.676Z,81.50
2017-08-15T01:09:10.748Z,81.70
2017-08-15T01:11:45.693Z,81.60
2017-08-15T01:14:19.883Z,81.60
2017-08-15T01:16:53.627Z,81.40
2017-08-15T01:19:29.675Z,82.80
2017-08-15T01:22:05.820Z,82.80
2017-08-15T01:24:41.862Z,83.40
2017-08-15T01:27:15.995Z,82.80
2017-08-15T01:29:52.036Z,83.00
2017-08-15T01:32:26.144Z,82.90
2017-08-15T01:35:01.543Z,83.30
2017-08-15T01:37:47.459Z,83.00
2017-08-15T01:40:22.212Z,82.70
2017-08-15T01:42:57.671Z,82.60
2017-08-15T01:45:31.761Z,83.00
2017-08-15T01:48:05.756Z,83.20
2017-08-15T01:50:40.468Z,82.20
2017-08-15T01:53:14.701Z,82.20
2017-08-15T01:55:48.521Z,82.50
2017-08-15T01:58:22.373Z,82.80
2017-08-15T02:00:56.320Z,82.80
2017-08-15T02:03:30.747Z,82.20
2017-08-15T02:06:06.694Z,82.20
2017-08-15T02:08:40.722Z,82.20
2017-08-15T02:11:14.447Z,82.20
2017-08-15T02:13:48.997Z,82.20
2017-08-15T02:16:22.825Z,82.20
2017-08-15T02:18:56.661Z,82.40
2017-08-15T02:21:31.214Z,83.10
2017-08-15T02:24:05.112Z,82.70
2017-08-15T02:26:39.043Z,82.70
2017-08-15T02:29:12.668Z,82.90
2017-08-15T02:31:47.300Z,82.40
2017-08-15T02:34:22.344Z,82.10
2017-08-15T02:36:56.303Z,81.90
2017-08-15T02:39:30.261Z,81.90
2017-08-15T02:42:04.464Z,81.80
2017-08-15T02:44:39.155Z,81.50
2017-08-15T02:47:13.933Z,81.50
2017-08-15T02:49:50.823Z,82.10
2017-08-15T02:52:24.862Z,82.10
2017-08-15T02:54:59.437Z,83.00
2017-08-15T02:57:34.200Z,82.70
2017-08-15T03:00:08.641Z,82.50
2017-08-15T03:02:42.834Z,82.30
2017-08-15T03:05:16.622Z,82.30
2017-08-15T03:07:51.153Z,82.50
2017-08-15T03:10:24.929Z,82.80
2017-08-15T03:12:59.679Z,83.00
2017-08-15T03:15:33.545Z,83.10
2017-08-15T03:18:07.175Z,83.30
2017-08-15T03:20:41.598Z,84.20
2017-08-15T03:23:15.515Z,84.10
2017-08-15T03:25:49.832Z,84.20
2017-08-15T03:28:23.767Z,84.80
2017-08-15T03:30:58.094Z,84.20
2017-08-15T03:33:33.232Z,84.40
2017-08-15T03:36:06.952Z,85.10
2017-08-15T03:38:41.802Z,84.70
2017-08-15T03:41:16.076Z,83.80
2017-08-15T03:43:51.256Z,84.30
2017-08-15T03:46:25.147Z,85.30
2017-08-15T03:48:58.942Z,84.10
2017-08-15T03:51:34.133Z,84.80
2017-08-15T03:54:08.119Z,84.80
2017-08-15T03:56:43.027Z,85.00
2017-08-15T03:59:17.343Z,85.10
2017-08-15T04:01:51.384Z,85.00
2017-08-15T04:04:25.902Z,84.50
2017-08-15T04:06:59.915Z,84.30
2017-08-15T04:09:34.908Z,84.90
2017-08-15T04:12:09.041Z,84.80
2017-08-15T04:14:42.848Z,84.40
2017-08-15T04:17:17.586Z,85.00
2017-08-15T04:19:52.406Z,85.00
2017-08-15T04:22:26.059Z,84.80
2017-08-15T04:25:00.833Z,84.40
2017-08-15T04:27:34.517Z,84.00
2017-08-15T04:30:08.702Z,84.40
2017-08-15T04:32:43.418Z,84.40
2017-08-15T04:35:18.447Z,85.50
2017-08-15T04:37:52.596Z,86.30
2017-08-15T04:40:27.156Z,85.30
2017-08-15T04:43:01.135Z,85.70
2017-08-15T04:45:35.098Z,85.50
2017-08-15T04:48:08.780Z,85.70
2017-08-15T04:50:43.623Z,86.70
2017-08-15T04:53:17.618Z,85.90
2017-08-15T04:55:55.694Z,85.50
2017-08-15T04:58:29.820Z,86.00
2017-08-15T05:01:04.829Z,85.90
2017-08-15T05:03:38.983Z,86.60
2017-08-15T05:06:20.861Z,87.00
2017-08-15T05:08:56.039Z,87.10
2017-08-15T05:11:33.801Z,85.70
2017-08-15T05:14:11.082Z,87.10
2017-08-15T05:16:45.162Z,87.10
2017-08-15T05:19:19.914Z,88.80
2017-08-15T05:21:56.125Z,88.80
2017-08-15T05:24:32.455Z,87.30
2017-08-15T05:27:11.173Z,87.30
2017-08-15T05:29:48.802Z,87.70
2017-08-15T05:32:26.613Z,87.80
2017-08-15T05:35:06.004Z,90.20
2017-08-15T05:37:44.217Z,88.80
2017-08-15T05:40:18.532Z,89.10
2017-08-15T05:42:53.546Z,87.40
2017-08-15T05:45:31.444Z,89.00
2017-08-15T05:48:07.419Z,87.70
2017-08-15T05:50:41.285Z,86.10
2017-08-15T05:53:15.774Z,87.20
2017-08-15T05:55:53.010Z,87.50
2017-08-15T05:58:27.926Z,87.40
2017-08-15T06:01:02.627Z,89.00
2017-08-15T06:03:36.630Z,88.90
2017-08-15T06:06:12.071Z,89.10
2017-08-15T06:08:48.982Z,87.20
2017-08-15T06:11:28.841Z,89.80
2017-08-15T06:14:03.611Z,90.60
2017-08-15T06:16:37.296Z,90.30
2017-08-15T06:19:11.203Z,90.70
2017-08-15T06:21:45.858Z,90.70
2017-08-15T06:24:20.187Z,91.00
2017-08-15T06:26:56.058Z,91.20
2017-08-15T06:29:30.922Z,91.20
2017-08-15T06:32:04.515Z,91.10
2017-08-15T06:34:39.274Z,91.00
2017-08-15T06:37:15.671Z,90.90
2017-08-15T06:39:49.915Z,90.80
2017-08-15T06:42:24.601Z,90.90
2017-08-15T06:44:59.388Z,91.50
2017-08-15T06:47:33.604Z,91.50
2017-08-15T06:50:09.072Z,92.00
2017-08-15T06:52:46.053Z,90.50
2017-08-15T06:55:21.040Z,90.50
2017-08-15T07:00:56.323Z,88.50
2017-08-15T07:03:32.696Z,88.10
2017-08-15T07:06:06.434Z,87.80
2017-08-15T07:08:40.491Z,88.60
2017-08-15T07:11:15.678Z,88.20
2017-08-15T07:13:50.206Z,89.50
2017-08-15T07:16:26.458Z,89.40
2017-08-15T07:19:03.155Z,88.80
2017-08-15T07:21:37.403Z,88.60
2017-08-15T07:24:12.533Z,86.10
2017-08-15T07:26:46.835Z,86.60
2017-08-15T07:29:20.810Z,85.50
2017-08-15T07:31:54.514Z,84.30
2017-08-15T07:34:28.589Z,84.00
2017-08-15T07:37:02.920Z,84.80
2017-08-15T07:39:38.473Z,82.20
2017-08-15T07:42:12.683Z,82.20
2017-08-15T07:44:46.803Z,82.20
2017-08-15T07:47:20.899Z,82.40
2017-08-15T07:49:55.138Z,82.50
2017-08-15T07:52:29.508Z,84.20
2017-08-15T07:55:03.537Z,82.60
2017-08-15T07:57:37.472Z,82.20
2017-08-15T08:00:13.473Z,80.80
2017-08-15T08:02:48.113Z,80.60
2017-08-15T08:05:23.527Z,80.50
2017-08-15T08:07:58.347Z,83.10
2017-08-15T08:10:32.300Z,83.10
2017-08-15T08:13:07.226Z,83.00
2017-08-15T08:15:41.370Z,83.00
2017-08-15T08:18:15.386Z,79.20
2017-08-15T08:20:50.501Z,78.30
2017-08-15T08:23:24.617Z,78.30
2017-08-15T08:25:59.988Z,81.70
2017-08-15T08:28:34.428Z,79.40
2017-08-15T08:31:08.912Z,82.20
2017-08-15T08:33:42.969Z,80.40
2017-08-15T08:36:17.385Z,73.20
2017-08-15T08:38:52.616Z,71.40
2017-08-15T08:41:27.922Z,74.90
2017-08-15T08:44:01.843Z,72.40
2017-08-15T08:46:36.566Z,74.50
2017-08-15T08:49:10.571Z,70.20
2017-08-15T08:51:44.590Z,67.40
2017-08-15T08:54:19.575Z,69.80
2017-08-15T08:56:54.753Z,71.10
2017-08-15T08:59:30.591Z,70.70
2017-08-15T09:02:05.934Z,70.80
2017-08-15T09:04:41.383Z,65.80
2017-08-15T09:07:15.468Z,65.70
2017-08-15T09:09:49.290Z,66.90
2017-08-15T09:12:23.633Z,73.80
2017-08-15T09:14:57.752Z,71.90
2017-08-15T09:17:32.784Z,67.30
2017-08-15T09:20:07.580Z,68.00
2017-08-15T09:22:41.473Z,64.40
2017-08-15T09:25:15.218Z,61.70
2017-08-15T09:27:49.951Z,70.90
2017-08-15T09:30:23.986Z,70.90
2017-08-15T09:32:58.923Z,59.20
2017-08-15T09:35:33.153Z,58.70
2017-08-15T09:38:08.387Z,59.20
2017-08-15T09:40:45.340Z,56.20
2017-08-15T09:43:20.233Z,55.00
2017-08-15T09:45:55.400Z,57.10
2017-08-15T09:48:33.840Z,57.10
2017-08-15T09:51:12.543Z,58.90
2017-08-15T09:53:46.838Z,57.30
2017-08-15T09:56:26.740Z,56.40
2017-08-15T09:59:06.711Z,60.70
2017-08-15T10:01:45.862Z,55.10
2017-08-15T10:04:20.245Z,56.70
2017-08-15T10:06:55.341Z,58.70
2017-08-15T10:09:31.898Z,56.50
2017-08-15T10:12:07.359Z,56.80
2017-08-15T10:14:42.205Z,56.70
2017-08-15T10:17:19.719Z,54.10
2017-08-15T10:19:54.649Z,54.20
2017-08-15T10:22:29.378Z,51.40
2017-08-15T10:25:05.339Z,51.30
2017-08-15T10:27:49.252Z,50.80
2017-08-15T10:30:23.651Z,52.90
2017-08-15T10:33:00.588Z,50.50
2017-08-15T10:35:37.804Z,50.40
2017-08-15T10:38:12.799Z,48.70
2017-08-15T10:40:49.921Z,47.10
2017-08-15T10:43:24.578Z,47.10
2017-08-15T10:45:58.954Z,47.20
2017-08-15T10:48:33.029Z,48.70
2017-08-15T10:51:07.099Z,50.40
2017-08-15T10:53:43.046Z,49.20
2017-08-15T10:56:17.117Z,48.50
2017-08-15T10:58:57.394Z,51.60
2017-08-15T11:01:34.881Z,51.10
2017-08-15T11:04:13.768Z,51.40
2017-08-15T11:06:48.654Z,50.50
2017-08-15T11:09:25.666Z,46.80
2017-08-15T11:12:03.163Z,47.70
2017-08-15T11:17:27.765Z,46.70
2017-08-15T11:20:06.768Z,46.10
2017-08-15T11:22:46.688Z,48.50
2017-08-15T11:25:23.280Z,46.10
2017-08-15T11:28:00.232Z,45.50
2017-08-15T11:30:40.434Z,45.30
2017-08-15T11:33:16.785Z,47.20
2017-08-15T11:35:53.832Z,46.50
2017-08-15T11:38:31.857Z,46.40
2017-08-15T11:41:13.782Z,47.30
2017-08-15T11:43:49.630Z,48.50
2017-08-15T11:46:26.633Z,49.20
2017-08-15T11:49:03.206Z,50.10
2017-08-15T11:51:41.807Z,48.80
2017-08-15T11:54:20.570Z,47.80
2017-08-15T11:56:55.276Z,47.50
2017-08-15T11:59:33.700Z,47.60
2017-08-15T12:02:09.438Z,47.60
2017-08-15T12:04:44.438Z,47.00
2017-08-15T12:07:20.052Z,46.20
2017-08-15T12:09:54.056Z,46.20
2017-08-15T12:12:30.664Z,48.00
2017-08-15T12:15:05.904Z,46.00
2017-08-15T12:17:41.857Z,46.90
2017-08-15T12:20:19.926Z,47.10
2017-08-15T12:22:56.518Z,45.50
2017-08-15T12:25:33.208Z,45.40
2017-08-15T12:28:10.340Z,44.50
2017-08-15T12:30:48.645Z,44.40
2017-08-15T12:33:26.956Z,46.70
2017-08-15T12:36:11.745Z,45.00
2017-08-15T12:38:53.176Z,45.80
2017-08-15T12:41:45.872Z,47.20
2017-08-15T12:44:27.213Z,48.80
2017-08-15T12:49:51.626Z,49.40
2017-08-15T12:52:27.875Z,50.50
2017-08-15T12:55:07.702Z,47.90
2017-08-15T12:57:47.008Z,47.50
2017-08-15T13:00:32.580Z,48.10
2017-08-15T13:05:48.721Z,50.00
2017-08-15T13:08:23.253Z,48.40
2017-08-15T13:10:57.278Z,49.30
2017-08-15T13:13:32.132Z,48.70
2017-08-15T13:16:06.266Z,49.00
2017-08-15T13:18:40.987Z,49.50
2017-08-15T13:21:17.666Z,50.00
2017-08-15T13:23:55.608Z,48.40
2017-08-15T13:26:30.850Z,51.50
2017-08-15T13:29:10.930Z,49.40
2017-08-15T13:31:48.029Z,50.70
2017-08-15T13:34:22.284Z,50.70
2017-08-15T13:36:56.693Z,48.30
2017-08-15T13:39:31.535Z,46.10
2017-08-15T13:42:06.458Z,46.00
2017-08-15T13:44:41.262Z,45.90
2017-08-15T13:47:28.196Z,46.60
2017-08-15T13:50:10.974Z,46.80
2017-08-15T13:52:47.386Z,47.30
2017-08-15T13:55:25.802Z,43.60
2017-08-15T13:58:08.340Z,42.80
2017-08-15T14:00:45.210Z,41.80
2017-08-15T14:03:20.523Z,39.80
2017-08-15T14:08:52.525Z,42.60
2017-08-15T14:11:32.957Z,42.20
2017-08-15T14:14:06.976Z,43.50
2017-08-15T14:16:41.611Z,42.40
2017-08-15T14:19:18.915Z,43.40
2017-08-15T14:21:53.482Z,43.40
2017-08-15T14:24:29.973Z,43.80
2017-08-15T14:27:04.226Z,42.30
2017-08-15T14:29:38.595Z,42.10
2017-08-15T14:32:15.959Z,43.60
2017-08-15T14:34:50.286Z,43.20
2017-08-15T14:37:26.894Z,45.10
2017-08-15T14:40:03.059Z,43.80
2017-08-15T14:42:38.716Z,44.00
2017-08-15T14:45:13.265Z,43.10
2017-08-15T14:47:47.288Z,42.90
2017-08-15T14:50:22.841Z,42.30
2017-08-15T14:52:56.769Z,42.30
2017-08-15T14:55:30.629Z,44.10
2017-08-15T14:58:05.921Z,45.90
2017-08-15T15:00:43.653Z,43.30
2017-08-15T15:03:20.657Z,42.90
2017-08-15T15:06:01.824Z,41.40
2017-08-15T15:08:41.290Z,41.40
2017-08-15T15:11:20.196Z,42.60
2017-08-15T15:13:57.846Z,45.40
2017-08-15T15:16:31.479Z,44.30
2017-08-15T15:19:05.801Z,45.80
2017-08-15T15:21:39.697Z,46.10
2017-08-15T15:24:14.160Z,43.10
2017-08-15T15:26:48.605Z,40.80
2017-08-15T15:29:22.780Z,43.50
2017-08-15T15:32:07.024Z,41.70
2017-08-15T15:34:45.508Z,42.90
2017-08-15T15:37:26.747Z,43.50
2017-08-15T15:40:09.422Z,42.30
2017-08-15T15:42:44.583Z,42.20
2017-08-15T15:48:16.298Z,43.00
2017-08-15T15:50:53.557Z,41.60
2017-08-15T15:56:12.994Z,41.30
2017-08-15T15:58:48.440Z,41.40
2017-08-15T16:01:25.592Z,41.10
2017-08-15T16:04:14.747Z,43.50
2017-08-15T16:06:50.668Z,44.50
2017-08-15T16:09:37.390Z,45.00
2017-08-15T16:12:12.948Z,45.00
2017-08-15T16:14:51.678Z,44.80
2017-08-15T16:17:30.583Z,44.90
2017-08-15T16:20:05.737Z,46.10
2017-08-15T16:22:42.326Z,47.40
2017-08-15T16:25:16.195Z,46.10
2017-08-15T16:28:03.231Z,45.50
2017-08-15T16:33:25.802Z,48.20
2017-08-15T16:36:14.686Z,47.60
2017-08-15T16:38:51.636Z,47.70
2017-08-15T16:41:30.901Z,46.70
2017-08-15T16:44:12.567Z,47.20
2017-08-15T16:46:49.133Z,48.00
2017-08-15T16:49:24.830Z,48.50
2017-08-15T16:52:00.962Z,48.30
2017-08-15T16:54:34.941Z,48.60
2017-08-15T16:57:08.929Z,48.50
2017-08-15T16:59:47.411Z,48.20
2017-08-15T17:02:21.320Z,49.10
2017-08-15T17:04:55.128Z,49.40
2017-08-15T17:07:28.845Z,50.10
2017-08-15T17:10:03.460Z,51.00
2017-08-15T17:12:39.370Z,50.90
2017-08-15T17:15:13.884Z,51.70
2017-08-15T17:17:49.479Z,52.10
2017-08-15T17:20:27.162Z,51.80
2017-08-15T17:23:02.656Z,50.90
2017-08-15T17:25:37.052Z,50.90
2017-08-15T17:28:13.194Z,52.00
2017-08-15T17:30:52.767Z,53.20
2017-08-15T17:36:09.292Z,54.50
2017-08-15T17:38:43.912Z,54.50
2017-08-15T17:41:26.252Z,55.60
2017-08-15T17:44:01.409Z,55.60
2017-08-15T17:46:35.326Z,56.00
2017-08-15T17:49:21.260Z,55.90
2017-08-15T17:54:44.855Z,56.90
2017-08-15T17:57:23.566Z,57.60
2017-08-15T18:00:06.265Z,58.60
2017-08-15T18:02:48.475Z,58.60
2017-08-15T18:05:26.469Z,58.90
2017-08-15T18:08:04.744Z,59.00
2017-08-15T18:10:45.664Z,59.00
2017-08-15T18:13:22.958Z,58.80
2017-08-15T18:16:00.536Z,59.10
2017-08-15T18:18:35.008Z,60.00
2017-08-15T18:21:10.185Z,61.70
2017-08-15T18:23:46.511Z,62.80
2017-08-15T18:26:34.337Z,64.50
2017-08-15T18:29:10.419Z,64.10
2017-08-15T18:31:46.299Z,66.50
2017-08-15T18:34:25.656Z,67.50
2017-08-15T18:37:04.980Z,67.50
2017-08-15T18:42:32.821Z,66.80
2017-08-15T18:45:10.490Z,66.70
2017-08-15T18:47:44.353Z,66.70
2017-08-15T18:50:19.226Z,67.40
2017-08-15T18:55:52.251Z,70.30
2017-08-15T18:58:32.251Z,69.30
2017-08-15T19:01:06.752Z,69.20
2017-08-15T19:03:49.681Z,69.60
2017-08-15T19:06:31.869Z,69.60
2017-08-15T19:09:08.211Z,70.00
2017-08-15T19:11:44.108Z,72.50
2017-08-15T19:14:24.157Z,73.80
2017-08-15T19:17:12.132Z,73.70
2017-08-15T19:19:50.093Z,73.00
2017-08-15T19:22:32.129Z,74.40
2017-08-15T19:25:07.304Z,74.80
2017-08-15T19:27:49.387Z,73.60
2017-08-15T19:30:26.657Z,72.90
2017-08-15T19:33:07.572Z,73.40
2017-08-15T19:38:38.220Z,72.80
2017-08-15T19:41:34.277Z,72.70
2017-08-15T19:46:51.496Z,72.80
2017-08-15T19:49:25.492Z,73.00
2017-08-15T19:52:01.005Z,75.50
2017-08-15T19:54:38.071Z,75.10
2017-08-15T19:57:13.166Z,74.90
2017-08-15T19:59:47.587Z,74.50
2017-08-15T20:02:23.486Z,74.20
2017-08-15T20:05:03.873Z,74.20
2017-08-15T20:07:42.812Z,74.60
2017-08-15T20:13:04.521Z,74.50
2017-08-15T20:15:39.709Z,76.40
2017-08-15T20:18:26.937Z,75.80
2017-08-15T20:21:02.347Z,76.10
2017-08-15T20:23:37.721Z,76.10
2017-08-15T20:26:15.510Z,76.90
2017-08-15T20:28:49.747Z,76.90
2017-08-15T20:31:24.955Z,77.60
2017-08-15T20:33:59.901Z,79.50
2017-08-15T20:36:35.446Z,79.50
2017-08-15T20:39:10.889Z,80.50
2017-08-15T20:41:46.525Z,78.80
2017-08-15T20:44:23.055Z,78.00
2017-08-15T20:47:11.760Z,77.40
2017-08-15T20:49:55.294Z,77.30
2017-08-15T20:52:35.198Z,78.90
2017-08-15T20:55:23.460Z,78.10
2017-08-15T20:58:04.838Z,77.70
2017-08-15T21:00:45.188Z,77.30
2017-08-15T21:03:27.203Z,77.20
2017-08-15T21:06:06.470Z,77.10
2017-08-15T21:17:26.479Z,77.80
2017-08-15T21:20:01.080Z,77.50
2017-08-15T21:22:37.933Z,77.60
2017-08-15T21:25:11.926Z,77.90
2017-08-15T21:27:45.724Z,78.00
2017-08-15T21:30:20.330Z,78.40
2017-08-15T21:32:54.149Z,78.60
2017-08-15T21:35:27.974Z,77.60
2017-08-15T21:38:01.752Z,77.00
2017-08-15T21:40:35.525Z,76.40
2017-08-15T21:43:09.308Z,76.00
2017-08-15T21:45:43.117Z,75.60
2017-08-15T21:48:18.077Z,74.10
2017-08-15T21:50:52.190Z,74.60
2017-08-15T21:53:27.001Z,74.40
2017-08-15T21:56:02.235Z,75.30
2017-08-15T21:58:36.028Z,76.40
2017-08-15T22:01:16.896Z,77.10
2017-08-15T22:03:52.243Z,77.50
2017-08-15T22:06:26.786Z,78.00
2017-08-15T22:09:00.469Z,78.60
2017-08-15T22:11:37.470Z,79.40
2017-08-15T22:14:11.934Z,79.40
2017-08-15T22:16:45.905Z,79.40
2017-08-15T22:19:19.667Z,78.80
2017-08-15T22:21:54.339Z,78.80
2017-08-15T22:24:28.000Z,78.40
2017-08-15T22:27:02.658Z,83.30
2017-08-15T22:29:36.532Z,83.30
2017-08-15T22:32:10.590Z,88.20
2017-08-15T22:34:44.850Z,90.00
2017-08-15T22:37:19.002Z,90.30
2017-08-15T22:39:53.657Z,90.60
2017-08-15T22:42:27.236Z,91.00
2017-08-15T22:45:04.997Z,90.60
2017-08-15T22:50:27.220Z,90.60
2017-08-15T22:53:02.016Z,91.80
2017-08-15T22:55:36.104Z,91.80
2017-08-15T22:58:11.413Z,92.90
2017-08-15T23:00:45.872Z,93.40
2017-08-15T23:03:20.344Z,92.80
2017-08-15T23:05:54.229Z,93.20
